sensor_id;sensor_type;location;lat;lon;timestamp;P1;durP1;ratioP1;P2;durP2;ratioP2
2868;SDS011;1442;47.448;8.582;2023-07-13T00:00:40;4.80;;;2.80;;
2868;SDS011;1442;47.448;8.582;2023-07-13T00:03:08;11.43;;;3.35;;
2868;SDS011;1442;47.448;8.582;2023-07-13T00:05:38;6.05;;;3.38;;
2868;SDS011;1442;47.448;8.582;2023-07-13T00:08:06;7.82;;;3.75;;
2868;SDS011;1442;47.448;8.582;2023-07-13T00:10:36;4.85;;;3.30;;
2868;SDS011;1442;47.448;8.582;2023-07-13T00:13:05;8.57;;;3.08;;
2868;SDS011;1442;47.448;8.582;2023-07-13T00:15:32;7.70;;;3.10;;
2868;SDS011;1442;47.448;8.582;2023-07-13T00:18:00;7.55;;;3.58;;
2868;SDS011;1442;47.448;8.582;2023-07-13T00:20:27;4.30;;;2.67;;
2868;SDS011;1442;47.448;8.582;2023-07-13T00:22:54;5.85;;;3.05;;
2868;SDS011;1442;47.448;8.582;2023-07-13T00:25:22;6.05;;;3.28;;
2868;SDS011;1442;47.448;8.582;2023-07-13T00:27:54;8.68;;;3.35;;
2868;SDS011;1442;47.448;8.582;2023-07-13T00:30:21;7.93;;;3.72;;
2868;SDS011;1442;47.448;8.582;2023-07-13T00:32:49;6.38;;;3.28;;
2868;SDS011;1442;47.448;8.582;2023-07-13T00:35:16;4.88;;;3.28;;
2868;SDS011;1442;47.448;8.582;2023-07-13T00:37:44;7.15;;;3.13;;
2868;SDS011;1442;47.448;8.582;2023-07-13T00:40:12;3.72;;;2.60;;
2868;SDS011;1442;47.448;8.582;2023-07-13T00:42:40;6.72;;;2.97;;
2868;SDS011;1442;47.448;8.582;2023-07-13T00:50:18;6.90;;;2.83;;
2868;SDS011;1442;47.448;8.582;2023-07-13T00:52:48;4.53;;;3.15;;
2868;SDS011;1442;47.448;8.582;2023-07-13T00:55:16;8.27;;;2.90;;
2868;SDS011;1442;47.448;8.582;2023-07-13T00:57:44;4.75;;;2.50;;
2868;SDS011;1442;47.448;8.582;2023-07-13T01:00:11;9.73;;;3.60;;
2868;SDS011;1442;47.448;8.582;2023-07-13T01:02:40;7.60;;;3.30;;
2868;SDS011;1442;47.448;8.582;2023-07-13T01:05:08;9.65;;;3.00;;
2868;SDS011;1442;47.448;8.582;2023-07-13T01:07:37;3.83;;;2.42;;
2868;SDS011;1442;47.448;8.582;2023-07-13T01:10:05;8.95;;;3.28;;
2868;SDS011;1442;47.448;8.582;2023-07-13T01:12:32;7.50;;;3.35;;
2868;SDS011;1442;47.448;8.582;2023-07-13T01:15:00;4.10;;;2.83;;
2868;SDS011;1442;47.448;8.582;2023-07-13T01:17:27;8.25;;;3.28;;
2868;SDS011;1442;47.448;8.582;2023-07-13T01:19:55;6.45;;;3.05;;
2868;SDS011;1442;47.448;8.582;2023-07-13T01:22:24;10.45;;;3.45;;
2868;SDS011;1442;47.448;8.582;2023-07-13T01:24:52;4.43;;;2.92;;
2868;SDS011;1442;47.448;8.582;2023-07-13T01:27:20;6.03;;;2.85;;
2868;SDS011;1442;47.448;8.582;2023-07-13T01:29:48;11.73;;;3.05;;
2868;SDS011;1442;47.448;8.582;2023-07-13T01:32:17;9.88;;;3.45;;
2868;SDS011;1442;47.448;8.582;2023-07-13T01:34:48;8.27;;;3.03;;
2868;SDS011;1442;47.448;8.582;2023-07-13T01:37:15;5.65;;;2.97;;
2868;SDS011;1442;47.448;8.582;2023-07-13T01:39:44;7.75;;;3.35;;
2868;SDS011;1442;47.448;8.582;2023-07-13T01:42:11;5.57;;;2.92;;
2868;SDS011;1442;47.448;8.582;2023-07-13T01:44:39;7.95;;;3.53;;
2868;SDS011;1442;47.448;8.582;2023-07-13T01:47:06;8.35;;;2.88;;
2868;SDS011;1442;47.448;8.582;2023-07-13T01:49:33;6.57;;;3.42;;
2868;SDS011;1442;47.448;8.582;2023-07-13T01:52:00;5.78;;;2.90;;
2868;SDS011;1442;47.448;8.582;2023-07-13T01:54:27;5.22;;;3.05;;
2868;SDS011;1442;47.448;8.582;2023-07-13T01:56:56;10.70;;;3.28;;
2868;SDS011;1442;47.448;8.582;2023-07-13T01:59:23;5.88;;;3.20;;
2868;SDS011;1442;47.448;8.582;2023-07-13T02:01:50;7.75;;;2.80;;
2868;SDS011;1442;47.448;8.582;2023-07-13T02:04:17;8.88;;;3.10;;
2868;SDS011;1442;47.448;8.582;2023-07-13T02:06:44;6.05;;;3.20;;
2868;SDS011;1442;47.448;8.582;2023-07-13T02:09:11;3.60;;;2.28;;
2868;SDS011;1442;47.448;8.582;2023-07-13T02:11:38;7.05;;;3.25;;
2868;SDS011;1442;47.448;8.582;2023-07-13T02:14:07;5.05;;;2.63;;
2868;SDS011;1442;47.448;8.582;2023-07-13T02:16:34;5.68;;;3.17;;
2868;SDS011;1442;47.448;8.582;2023-07-13T02:19:01;6.03;;;2.60;;
2868;SDS011;1442;47.448;8.582;2023-07-13T02:21:28;7.60;;;3.22;;
2868;SDS011;1442;47.448;8.582;2023-07-13T02:23:55;5.40;;;3.13;;
2868;SDS011;1442;47.448;8.582;2023-07-13T02:26:23;8.88;;;3.42;;
2868;SDS011;1442;47.448;8.582;2023-07-13T02:28:50;5.32;;;3.10;;
2868;SDS011;1442;47.448;8.582;2023-07-13T02:31:18;6.57;;;3.13;;
2868;SDS011;1442;47.448;8.582;2023-07-13T02:33:46;8.35;;;3.00;;
2868;SDS011;1442;47.448;8.582;2023-07-13T02:36:13;4.00;;;2.50;;
2868;SDS011;1442;47.448;8.582;2023-07-13T02:38:41;8.63;;;2.95;;
2868;SDS011;1442;47.448;8.582;2023-07-13T02:41:09;13.30;;;3.08;;
2868;SDS011;1442;47.448;8.582;2023-07-13T02:43:37;8.15;;;3.30;;
2868;SDS011;1442;47.448;8.582;2023-07-13T02:46:04;7.75;;;3.38;;
2868;SDS011;1442;47.448;8.582;2023-07-13T02:48:34;8.85;;;3.60;;
2868;SDS011;1442;47.448;8.582;2023-07-13T02:51:01;8.35;;;3.25;;
2868;SDS011;1442;47.448;8.582;2023-07-13T02:53:28;10.20;;;3.13;;
2868;SDS011;1442;47.448;8.582;2023-07-13T02:55:56;7.75;;;3.42;;
2868;SDS011;1442;47.448;8.582;2023-07-13T02:58:23;7.38;;;3.67;;
2868;SDS011;1442;47.448;8.582;2023-07-13T03:00:51;7.05;;;3.17;;
2868;SDS011;1442;47.448;8.582;2023-07-13T03:03:18;6.50;;;3.22;;
2868;SDS011;1442;47.448;8.582;2023-07-13T03:05:46;8.40;;;3.13;;
2868;SDS011;1442;47.448;8.582;2023-07-13T03:08:15;4.88;;;3.45;;
2868;SDS011;1442;47.448;8.582;2023-07-13T03:10:43;8.38;;;3.72;;
2868;SDS011;1442;47.448;8.582;2023-07-13T03:13:10;5.45;;;3.08;;
2868;SDS011;1442;47.448;8.582;2023-07-13T03:15:37;11.55;;;3.35;;
2868;SDS011;1442;47.448;8.582;2023-07-13T03:18:04;9.32;;;3.30;;
2868;SDS011;1442;47.448;8.582;2023-07-13T03:20:32;5.82;;;3.22;;
2868;SDS011;1442;47.448;8.582;2023-07-13T03:23:00;6.10;;;2.88;;
2868;SDS011;1442;47.448;8.582;2023-07-13T03:25:28;9.57;;;3.20;;
2868;SDS011;1442;47.448;8.582;2023-07-13T03:27:55;8.32;;;3.50;;
2868;SDS011;1442;47.448;8.582;2023-07-13T03:30:22;4.10;;;2.50;;
2868;SDS011;1442;47.448;8.582;2023-07-13T03:32:49;5.43;;;3.20;;
2868;SDS011;1442;47.448;8.582;2023-07-13T03:35:16;5.43;;;3.03;;
2868;SDS011;1442;47.448;8.582;2023-07-13T03:37:43;8.48;;;2.45;;
2868;SDS011;1442;47.448;8.582;2023-07-13T03:40:12;4.75;;;2.45;;
2868;SDS011;1442;47.448;8.582;2023-07-13T03:42:39;8.80;;;3.08;;
2868;SDS011;1442;47.448;8.582;2023-07-13T03:45:07;6.75;;;2.88;;
2868;SDS011;1442;47.448;8.582;2023-07-13T03:47:35;4.60;;;2.95;;
2868;SDS011;1442;47.448;8.582;2023-07-13T03:50:02;5.38;;;2.85;;
2868;SDS011;1442;47.448;8.582;2023-07-13T03:52:29;8.32;;;3.05;;
2868;SDS011;1442;47.448;8.582;2023-07-13T03:54:56;5.72;;;2.83;;
2868;SDS011;1442;47.448;8.582;2023-07-13T03:57:25;7.10;;;4.20;;
2868;SDS011;1442;47.448;8.582;2023-07-13T03:59:52;5.10;;;3.70;;
2868;SDS011;1442;47.448;8.582;2023-07-13T04:02:20;7.35;;;3.35;;
2868;SDS011;1442;47.448;8.582;2023-07-13T04:04:47;4.43;;;3.10;;
2868;SDS011;1442;47.448;8.582;2023-07-13T04:07:14;7.68;;;2.83;;
2868;SDS011;1442;47.448;8.582;2023-07-13T04:09:41;7.30;;;3.50;;
2868;SDS011;1442;47.448;8.582;2023-07-13T04:12:08;5.80;;;3.35;;
2868;SDS011;1442;47.448;8.582;2023-07-13T04:14:37;7.88;;;3.58;;
2868;SDS011;1442;47.448;8.582;2023-07-13T04:17:04;5.22;;;3.10;;
2868;SDS011;1442;47.448;8.582;2023-07-13T04:19:32;5.55;;;2.83;;
2868;SDS011;1442;47.448;8.582;2023-07-13T04:21:59;4.55;;;2.85;;
2868;SDS011;1442;47.448;8.582;2023-07-13T04:24:26;4.82;;;3.13;;
2868;SDS011;1442;47.448;8.582;2023-07-13T04:26:53;5.63;;;3.15;;
2868;SDS011;1442;47.448;8.582;2023-07-13T04:29:24;9.77;;;3.63;;
2868;SDS011;1442;47.448;8.582;2023-07-13T04:31:53;10.00;;;3.10;;
2868;SDS011;1442;47.448;8.582;2023-07-13T04:34:20;9.75;;;3.00;;
2868;SDS011;1442;47.448;8.582;2023-07-13T04:36:47;8.45;;;3.13;;
2868;SDS011;1442;47.448;8.582;2023-07-13T04:39:14;7.55;;;3.70;;
2868;SDS011;1442;47.448;8.582;2023-07-13T04:41:42;5.70;;;3.15;;
2868;SDS011;1442;47.448;8.582;2023-07-13T04:44:09;7.57;;;3.22;;
2868;SDS011;1442;47.448;8.582;2023-07-13T04:46:36;5.25;;;3.50;;
2868;SDS011;1442;47.448;8.582;2023-07-13T04:49:05;5.97;;;2.90;;
2868;SDS011;1442;47.448;8.582;2023-07-13T04:51:32;9.73;;;3.65;;
2868;SDS011;1442;47.448;8.582;2023-07-13T04:53:59;10.77;;;2.92;;
2868;SDS011;1442;47.448;8.582;2023-07-13T04:56:27;6.03;;;2.95;;
2868;SDS011;1442;47.448;8.582;2023-07-13T04:58:55;4.35;;;2.97;;
2868;SDS011;1442;47.448;8.582;2023-07-13T05:01:23;6.90;;;3.47;;
2868;SDS011;1442;47.448;8.582;2023-07-13T05:03:50;9.32;;;3.00;;
2868;SDS011;1442;47.448;8.582;2023-07-13T05:06:19;5.43;;;2.78;;
2868;SDS011;1442;47.448;8.582;2023-07-13T05:08:46;6.65;;;3.22;;
2868;SDS011;1442;47.448;8.582;2023-07-13T05:11:13;6.75;;;2.75;;
2868;SDS011;1442;47.448;8.582;2023-07-13T05:13:40;6.97;;;3.47;;
2868;SDS011;1442;47.448;8.582;2023-07-13T05:16:07;8.70;;;3.72;;
2868;SDS011;1442;47.448;8.582;2023-07-13T05:18:34;8.30;;;3.58;;
2868;SDS011;1442;47.448;8.582;2023-07-13T05:21:03;6.22;;;3.00;;
2868;SDS011;1442;47.448;8.582;2023-07-13T05:23:32;5.95;;;2.63;;
2868;SDS011;1442;47.448;8.582;2023-07-13T05:26:00;6.97;;;2.90;;
2868;SDS011;1442;47.448;8.582;2023-07-13T05:28:27;3.97;;;2.78;;
2868;SDS011;1442;47.448;8.582;2023-07-13T05:30:55;7.80;;;3.38;;
2868;SDS011;1442;47.448;8.582;2023-07-13T05:33:22;9.75;;;3.63;;
2868;SDS011;1442;47.448;8.582;2023-07-13T05:35:49;4.97;;;3.25;;
2868;SDS011;1442;47.448;8.582;2023-07-13T05:38:16;10.77;;;3.20;;
2868;SDS011;1442;47.448;8.582;2023-07-13T05:40:45;5.97;;;2.85;;
2868;SDS011;1442;47.448;8.582;2023-07-13T05:43:13;8.45;;;3.10;;
2868;SDS011;1442;47.448;8.582;2023-07-13T05:45:40;10.50;;;4.03;;
2868;SDS011;1442;47.448;8.582;2023-07-13T05:48:07;6.63;;;2.97;;
2868;SDS011;1442;47.448;8.582;2023-07-13T05:50:34;5.38;;;2.92;;
2868;SDS011;1442;47.448;8.582;2023-07-13T05:53:01;5.80;;;3.22;;
2868;SDS011;1442;47.448;8.582;2023-07-13T05:55:29;9.88;;;3.22;;
2868;SDS011;1442;47.448;8.582;2023-07-13T05:57:57;7.53;;;3.65;;
2868;SDS011;1442;47.448;8.582;2023-07-13T06:00:25;5.32;;;3.55;;
2868;SDS011;1442;47.448;8.582;2023-07-13T06:02:52;7.93;;;4.32;;
2868;SDS011;1442;47.448;8.582;2023-07-13T06:05:19;10.25;;;4.15;;
2868;SDS011;1442;47.448;8.582;2023-07-13T06:07:46;8.48;;;3.67;;
2868;SDS011;1442;47.448;8.582;2023-07-13T06:10:13;8.60;;;3.67;;
2868;SDS011;1442;47.448;8.582;2023-07-13T06:12:40;7.57;;;3.40;;
2868;SDS011;1442;47.448;8.582;2023-07-13T06:15:09;6.97;;;3.55;;
2868;SDS011;1442;47.448;8.582;2023-07-13T06:17:36;8.07;;;3.13;;
2868;SDS011;1442;47.448;8.582;2023-07-13T06:20:04;6.63;;;3.53;;
2868;SDS011;1442;47.448;8.582;2023-07-13T06:22:31;6.35;;;3.63;;
2868;SDS011;1442;47.448;8.582;2023-07-13T06:24:58;7.72;;;3.58;;
2868;SDS011;1442;47.448;8.582;2023-07-13T06:27:26;10.18;;;3.65;;
2868;SDS011;1442;47.448;8.582;2023-07-13T06:29:53;7.53;;;3.80;;
2868;SDS011;1442;47.448;8.582;2023-07-13T06:32:21;3.95;;;3.00;;
2868;SDS011;1442;47.448;8.582;2023-07-13T06:34:48;7.38;;;3.67;;
2868;SDS011;1442;47.448;8.582;2023-07-13T06:37:16;5.95;;;3.00;;
2868;SDS011;1442;47.448;8.582;2023-07-13T06:39:44;4.85;;;3.67;;
2868;SDS011;1442;47.448;8.582;2023-07-13T06:42:11;8.05;;;3.85;;
2868;SDS011;1442;47.448;8.582;2023-07-13T06:44:38;7.63;;;3.47;;
2868;SDS011;1442;47.448;8.582;2023-07-13T06:47:05;6.93;;;4.05;;
2868;SDS011;1442;47.448;8.582;2023-07-13T06:49:34;8.80;;;3.50;;
2868;SDS011;1442;47.448;8.582;2023-07-13T06:52:01;8.15;;;3.78;;
2868;SDS011;1442;47.448;8.582;2023-07-13T06:54:29;7.63;;;3.88;;
2868;SDS011;1442;47.448;8.582;2023-07-13T06:56:56;6.50;;;3.88;;
2868;SDS011;1442;47.448;8.582;2023-07-13T06:59:23;7.38;;;4.50;;
2868;SDS011;1442;47.448;8.582;2023-07-13T07:01:50;6.22;;;4.00;;
2868;SDS011;1442;47.448;8.582;2023-07-13T07:04:17;7.60;;;3.47;;
2868;SDS011;1442;47.448;8.582;2023-07-13T07:06:46;6.93;;;3.90;;
2868;SDS011;1442;47.448;8.582;2023-07-13T07:09:13;4.40;;;3.17;;
2868;SDS011;1442;47.448;8.582;2023-07-13T07:11:41;5.88;;;3.55;;
2868;SDS011;1442;47.448;8.582;2023-07-13T07:14:08;10.75;;;3.80;;
2868;SDS011;1442;47.448;8.582;2023-07-13T07:16:35;4.10;;;3.25;;
2868;SDS011;1442;47.448;8.582;2023-07-13T07:19:03;6.43;;;3.38;;
2868;SDS011;1442;47.448;8.582;2023-07-13T07:21:30;6.82;;;3.38;;
2868;SDS011;1442;47.448;8.582;2023-07-13T07:23:58;8.25;;;3.22;;
2868;SDS011;1442;47.448;8.582;2023-07-13T07:26:25;6.32;;;3.30;;
2868;SDS011;1442;47.448;8.582;2023-07-13T07:28:53;5.60;;;3.58;;
2868;SDS011;1442;47.448;8.582;2023-07-13T07:31:20;5.55;;;3.22;;
2868;SDS011;1442;47.448;8.582;2023-07-13T07:33:47;4.90;;;3.03;;
2868;SDS011;1442;47.448;8.582;2023-07-13T07:36:14;4.25;;;2.60;;
2868;SDS011;1442;47.448;8.582;2023-07-13T07:38:41;9.18;;;2.60;;
2868;SDS011;1442;47.448;8.582;2023-07-13T07:41:10;6.22;;;2.42;;
2868;SDS011;1442;47.448;8.582;2023-07-13T07:43:37;3.00;;;2.33;;
2868;SDS011;1442;47.448;8.582;2023-07-13T07:46:04;3.88;;;2.22;;
2868;SDS011;1442;47.448;8.582;2023-07-13T07:48:31;6.22;;;2.55;;
2868;SDS011;1442;47.448;8.582;2023-07-13T07:50:59;3.05;;;2.10;;
2868;SDS011;1442;47.448;8.582;2023-07-13T07:53:26;2.85;;;1.98;;
2868;SDS011;1442;47.448;8.582;2023-07-13T07:55:53;2.92;;;2.33;;
2868;SDS011;1442;47.448;8.582;2023-07-13T07:58:21;3.05;;;2.13;;
2868;SDS011;1442;47.448;8.582;2023-07-13T08:00:48;2.92;;;2.20;;
2868;SDS011;1442;47.448;8.582;2023-07-13T08:03:15;2.22;;;2.03;;
2868;SDS011;1442;47.448;8.582;2023-07-13T08:05:43;3.42;;;1.85;;
2868;SDS011;1442;47.448;8.582;2023-07-13T08:08:10;4.38;;;2.30;;
2868;SDS011;1442;47.448;8.582;2023-07-13T08:10:37;3.58;;;2.10;;
2868;SDS011;1442;47.448;8.582;2023-07-13T08:13:04;4.53;;;2.05;;
2868;SDS011;1442;47.448;8.582;2023-07-13T08:15:32;2.95;;;2.13;;
2868;SDS011;1442;47.448;8.582;2023-07-13T08:17:59;2.85;;;1.70;;
2868;SDS011;1442;47.448;8.582;2023-07-13T08:20:27;1.95;;;1.70;;
2868;SDS011;1442;47.448;8.582;2023-07-13T08:22:54;2.60;;;1.88;;
2868;SDS011;1442;47.448;8.582;2023-07-13T08:25:21;4.00;;;1.90;;
2868;SDS011;1442;47.448;8.582;2023-07-13T08:27:48;3.70;;;2.10;;
2868;SDS011;1442;47.448;8.582;2023-07-13T08:30:15;3.55;;;1.70;;
2868;SDS011;1442;47.448;8.582;2023-07-13T08:32:44;2.75;;;1.80;;
2868;SDS011;1442;47.448;8.582;2023-07-13T08:35:11;2.35;;;1.55;;
2868;SDS011;1442;47.448;8.582;2023-07-13T08:37:39;3.53;;;1.98;;
2868;SDS011;1442;47.448;8.582;2023-07-13T08:40:07;2.33;;;1.50;;
2868;SDS011;1442;47.448;8.582;2023-07-13T08:42:36;3.75;;;1.83;;
2868;SDS011;1442;47.448;8.582;2023-07-13T08:45:06;3.70;;;1.67;;
2868;SDS011;1442;47.448;8.582;2023-07-13T08:47:36;3.20;;;1.85;;
2868;SDS011;1442;47.448;8.582;2023-07-13T08:50:08;6.82;;;2.40;;
2868;SDS011;1442;47.448;8.582;2023-07-13T08:52:37;4.15;;;2.00;;
2868;SDS011;1442;47.448;8.582;2023-07-13T08:55:08;4.03;;;1.92;;
2868;SDS011;1442;47.448;8.582;2023-07-13T08:57:38;2.13;;;1.80;;
2868;SDS011;1442;47.448;8.582;2023-07-13T09:00:09;4.72;;;1.60;;
2868;SDS011;1442;47.448;8.582;2023-07-13T09:02:39;9.18;;;2.08;;
2868;SDS011;1442;47.448;8.582;2023-07-13T09:05:10;2.45;;;1.80;;
2868;SDS011;1442;47.448;8.582;2023-07-13T09:07:40;5.75;;;2.20;;
2868;SDS011;1442;47.448;8.582;2023-07-13T09:10:11;3.35;;;2.30;;
2868;SDS011;1442;47.448;8.582;2023-07-13T09:12:45;6.63;;;2.03;;
2868;SDS011;1442;47.448;8.582;2023-07-13T09:15:22;6.90;;;2.20;;
2868;SDS011;1442;47.448;8.582;2023-07-13T09:17:51;4.32;;;2.20;;
2868;SDS011;1442;47.448;8.582;2023-07-13T09:20:23;4.40;;;1.90;;
2868;SDS011;1442;47.448;8.582;2023-07-13T09:22:51;5.80;;;1.90;;
2868;SDS011;1442;47.448;8.582;2023-07-13T09:25:22;2.95;;;2.10;;
2868;SDS011;1442;47.448;8.582;2023-07-13T09:27:50;4.80;;;2.17;;
2868;SDS011;1442;47.448;8.582;2023-07-13T09:30:24;4.32;;;2.50;;
2868;SDS011;1442;47.448;8.582;2023-07-13T09:32:55;4.07;;;2.25;;
2868;SDS011;1442;47.448;8.582;2023-07-13T09:35:26;2.80;;;2.10;;
2868;SDS011;1442;47.448;8.582;2023-07-13T09:37:57;3.20;;;1.88;;
2868;SDS011;1442;47.448;8.582;2023-07-13T09:40:26;3.25;;;1.90;;
2868;SDS011;1442;47.448;8.582;2023-07-13T09:42:55;6.80;;;2.05;;
2868;SDS011;1442;47.448;8.582;2023-07-13T09:45:26;4.07;;;1.90;;
2868;SDS011;1442;47.448;8.582;2023-07-13T09:47:58;3.08;;;1.85;;
2868;SDS011;1442;47.448;8.582;2023-07-13T09:50:27;4.00;;;1.92;;
2868;SDS011;1442;47.448;8.582;2023-07-13T09:52:54;5.47;;;1.90;;
2868;SDS011;1442;47.448;8.582;2023-07-13T09:55:24;5.03;;;1.90;;
2868;SDS011;1442;47.448;8.582;2023-07-13T09:57:52;4.25;;;2.40;;
2868;SDS011;1442;47.448;8.582;2023-07-13T10:00:23;4.28;;;2.20;;
2868;SDS011;1442;47.448;8.582;2023-07-13T10:03:01;3.63;;;2.03;;
2868;SDS011;1442;47.448;8.582;2023-07-13T10:05:38;3.50;;;1.90;;
2868;SDS011;1442;47.448;8.582;2023-07-13T10:08:05;4.47;;;1.90;;
2868;SDS011;1442;47.448;8.582;2023-07-13T10:10:33;6.40;;;2.00;;
2868;SDS011;1442;47.448;8.582;2023-07-13T10:13:02;5.90;;;2.20;;
2868;SDS011;1442;47.448;8.582;2023-07-13T10:15:30;3.70;;;2.17;;
2868;SDS011;1442;47.448;8.582;2023-07-13T10:17:57;5.15;;;2.30;;
2868;SDS011;1442;47.448;8.582;2023-07-13T10:20:25;2.55;;;1.55;;
2868;SDS011;1442;47.448;8.582;2023-07-13T10:22:56;8.57;;;2.30;;
2868;SDS011;1442;47.448;8.582;2023-07-13T10:25:26;3.83;;;1.88;;
2868;SDS011;1442;47.448;8.582;2023-07-13T10:27:58;5.57;;;2.10;;
2868;SDS011;1442;47.448;8.582;2023-07-13T10:30:27;2.15;;;1.58;;
2868;SDS011;1442;47.448;8.582;2023-07-13T10:32:57;5.97;;;2.10;;
2868;SDS011;1442;47.448;8.582;2023-07-13T10:35:24;3.40;;;2.05;;
2868;SDS011;1442;47.448;8.582;2023-07-13T10:37:55;5.10;;;2.15;;
2868;SDS011;1442;47.448;8.582;2023-07-13T10:40:27;5.28;;;2.17;;
2868;SDS011;1442;47.448;8.582;2023-07-13T10:42:56;3.15;;;1.83;;
2868;SDS011;1442;47.448;8.582;2023-07-13T10:45:24;7.75;;;2.08;;
2868;SDS011;1442;47.448;8.582;2023-07-13T10:47:53;3.50;;;2.42;;
2868;SDS011;1442;47.448;8.582;2023-07-13T10:50:21;6.07;;;2.20;;
2868;SDS011;1442;47.448;8.582;2023-07-13T10:52:50;7.68;;;2.40;;
2868;SDS011;1442;47.448;8.582;2023-07-13T10:55:37;5.30;;;2.35;;
2868;SDS011;1442;47.448;8.582;2023-07-13T10:58:12;8.43;;;1.80;;
2868;SDS011;1442;47.448;8.582;2023-07-13T11:00:44;3.15;;;1.90;;
2868;SDS011;1442;47.448;8.582;2023-07-13T11:03:13;6.32;;;2.20;;
2868;SDS011;1442;47.448;8.582;2023-07-13T11:05:41;5.22;;;2.00;;
2868;SDS011;1442;47.448;8.582;2023-07-13T11:08:13;8.73;;;2.60;;
2868;SDS011;1442;47.448;8.582;2023-07-13T11:10:48;4.43;;;1.77;;
2868;SDS011;1442;47.448;8.582;2023-07-13T11:16:02;3.22;;;1.98;;
2868;SDS011;1442;47.448;8.582;2023-07-13T11:18:38;5.22;;;2.30;;
2868;SDS011;1442;47.448;8.582;2023-07-13T11:21:12;5.47;;;1.98;;
2868;SDS011;1442;47.448;8.582;2023-07-13T11:23:41;5.88;;;1.95;;
2868;SDS011;1442;47.448;8.582;2023-07-13T11:28:53;6.65;;;2.10;;
2868;SDS011;1442;47.448;8.582;2023-07-13T11:31:20;4.50;;;1.67;;
2868;SDS011;1442;47.448;8.582;2023-07-13T11:33:50;3.78;;;2.08;;
2868;SDS011;1442;47.448;8.582;2023-07-13T11:36:17;4.13;;;1.92;;
2868;SDS011;1442;47.448;8.582;2023-07-13T11:38:49;4.25;;;2.10;;
2868;SDS011;1442;47.448;8.582;2023-07-13T11:41:18;5.32;;;2.00;;
2868;SDS011;1442;47.448;8.582;2023-07-13T11:43:48;3.47;;;1.67;;
2868;SDS011;1442;47.448;8.582;2023-07-13T11:46:18;5.47;;;1.63;;
2868;SDS011;1442;47.448;8.582;2023-07-13T11:48:46;8.13;;;1.88;;
2868;SDS011;1442;47.448;8.582;2023-07-13T11:51:16;4.40;;;2.15;;
2868;SDS011;1442;47.448;8.582;2023-07-13T11:53:45;3.35;;;1.70;;
2868;SDS011;1442;47.448;8.582;2023-07-13T11:56:12;11.45;;;1.95;;
2868;SDS011;1442;47.448;8.582;2023-07-13T11:58:40;5.22;;;1.88;;
2868;SDS011;1442;47.448;8.582;2023-07-13T12:01:10;4.78;;;1.67;;
2868;SDS011;1442;47.448;8.582;2023-07-13T12:03:44;4.30;;;1.80;;
2868;SDS011;1442;47.448;8.582;2023-07-13T12:06:21;7.68;;;1.65;;
2868;SDS011;1442;47.448;8.582;2023-07-13T12:08:48;5.03;;;1.60;;
2868;SDS011;1442;47.448;8.582;2023-07-13T12:11:17;4.30;;;2.00;;
2868;SDS011;1442;47.448;8.582;2023-07-13T12:13:46;5.43;;;2.15;;
2868;SDS011;1442;47.448;8.582;2023-07-13T12:16:14;3.22;;;1.85;;
2868;SDS011;1442;47.448;8.582;2023-07-13T12:18:42;3.45;;;1.67;;
2868;SDS011;1442;47.448;8.582;2023-07-13T12:21:14;3.85;;;1.55;;
2868;SDS011;1442;47.448;8.582;2023-07-13T12:23:43;7.28;;;2.15;;
2868;SDS011;1442;47.448;8.582;2023-07-13T12:26:11;3.97;;;1.80;;
2868;SDS011;1442;47.448;8.582;2023-07-13T12:28:43;3.10;;;1.55;;
2868;SDS011;1442;47.448;8.582;2023-07-13T12:31:22;4.38;;;2.15;;
2868;SDS011;1442;47.448;8.582;2023-07-13T12:33:55;7.85;;;1.98;;
2868;SDS011;1442;47.448;8.582;2023-07-13T12:36:24;7.15;;;1.55;;
2868;SDS011;1442;47.448;8.582;2023-07-13T12:38:52;9.32;;;2.75;;
2868;SDS011;1442;47.448;8.582;2023-07-13T12:41:19;4.07;;;1.65;;
2868;SDS011;1442;47.448;8.582;2023-07-13T12:43:48;3.97;;;1.83;;
2868;SDS011;1442;47.448;8.582;2023-07-13T12:46:17;1.55;;;1.30;;
2868;SDS011;1442;47.448;8.582;2023-07-13T12:48:47;2.40;;;1.50;;
2868;SDS011;1442;47.448;8.582;2023-07-13T12:51:15;2.40;;;1.65;;
2868;SDS011;1442;47.448;8.582;2023-07-13T12:53:48;6.45;;;1.95;;
2868;SDS011;1442;47.448;8.582;2023-07-13T12:56:18;5.30;;;1.90;;
2868;SDS011;1442;47.448;8.582;2023-07-13T12:58:46;2.00;;;1.48;;
2868;SDS011;1442;47.448;8.582;2023-07-13T13:01:19;3.55;;;1.67;;
2868;SDS011;1442;47.448;8.582;2023-07-13T13:03:48;3.38;;;1.65;;
2868;SDS011;1442;47.448;8.582;2023-07-13T13:06:23;5.45;;;1.80;;
2868;SDS011;1442;47.448;8.582;2023-07-13T13:08:53;4.18;;;2.00;;
2868;SDS011;1442;47.448;8.582;2023-07-13T13:11:21;8.68;;;2.08;;
2868;SDS011;1442;47.448;8.582;2023-07-13T13:13:49;5.50;;;1.80;;
2868;SDS011;1442;47.448;8.582;2023-07-13T13:16:19;11.98;;;2.00;;
2868;SDS011;1442;47.448;8.582;2023-07-13T13:18:47;7.40;;;1.73;;
2868;SDS011;1442;47.448;8.582;2023-07-13T13:21:14;4.82;;;1.85;;
2868;SDS011;1442;47.448;8.582;2023-07-13T13:23:41;2.83;;;1.80;;
2868;SDS011;1442;47.448;8.582;2023-07-13T13:26:12;6.03;;;1.80;;
2868;SDS011;1442;47.448;8.582;2023-07-13T13:28:40;3.25;;;1.67;;
2868;SDS011;1442;47.448;8.582;2023-07-13T13:31:09;7.82;;;2.38;;
2868;SDS011;1442;47.448;8.582;2023-07-13T13:33:37;4.80;;;1.73;;
2868;SDS011;1442;47.448;8.582;2023-07-13T13:36:08;3.65;;;1.60;;
2868;SDS011;1442;47.448;8.582;2023-07-13T13:38:36;8.10;;;1.95;;
2868;SDS011;1442;47.448;8.582;2023-07-13T13:41:03;2.65;;;1.65;;
2868;SDS011;1442;47.448;8.582;2023-07-13T13:43:32;3.92;;;1.58;;
2868;SDS011;1442;47.448;8.582;2023-07-13T13:45:59;4.90;;;1.70;;
2868;SDS011;1442;47.448;8.582;2023-07-13T13:48:26;5.47;;;1.92;;
2868;SDS011;1442;47.448;8.582;2023-07-13T13:50:55;7.03;;;1.65;;
2868;SDS011;1442;47.448;8.582;2023-07-13T13:53:23;2.83;;;1.85;;
2868;SDS011;1442;47.448;8.582;2023-07-13T13:55:50;3.72;;;1.73;;
2868;SDS011;1442;47.448;8.582;2023-07-13T13:58:17;2.47;;;1.58;;
2868;SDS011;1442;47.448;8.582;2023-07-13T14:00:46;3.53;;;1.63;;
2868;SDS011;1442;47.448;8.582;2023-07-13T14:03:15;3.03;;;1.73;;
2868;SDS011;1442;47.448;8.582;2023-07-13T14:05:43;3.72;;;1.48;;
2868;SDS011;1442;47.448;8.582;2023-07-13T14:08:12;4.50;;;1.58;;
2868;SDS011;1442;47.448;8.582;2023-07-13T14:10:40;2.75;;;1.83;;
2868;SDS011;1442;47.448;8.582;2023-07-13T14:13:11;5.40;;;1.60;;
2868;SDS011;1442;47.448;8.582;2023-07-13T14:15:42;3.92;;;2.05;;
2868;SDS011;1442;47.448;8.582;2023-07-13T14:18:11;4.90;;;1.55;;
2868;SDS011;1442;47.448;8.582;2023-07-13T14:20:43;2.22;;;1.55;;
2868;SDS011;1442;47.448;8.582;2023-07-13T14:23:12;2.50;;;1.52;;
2868;SDS011;1442;47.448;8.582;2023-07-13T14:25:40;2.72;;;1.67;;
2868;SDS011;1442;47.448;8.582;2023-07-13T14:28:13;4.78;;;1.77;;
2868;SDS011;1442;47.448;8.582;2023-07-13T14:30:42;7.32;;;1.42;;
2868;SDS011;1442;47.448;8.582;2023-07-13T14:33:10;2.22;;;1.38;;
2868;SDS011;1442;47.448;8.582;2023-07-13T14:35:38;1.88;;;1.38;;
2868;SDS011;1442;47.448;8.582;2023-07-13T14:38:05;4.93;;;1.52;;
2868;SDS011;1442;47.448;8.582;2023-07-13T14:40:35;5.20;;;1.50;;
2868;SDS011;1442;47.448;8.582;2023-07-13T14:43:02;5.68;;;1.27;;
2868;SDS011;1442;47.448;8.582;2023-07-13T14:45:30;1.60;;;0.98;;
2868;SDS011;1442;47.448;8.582;2023-07-13T14:47:58;4.85;;;1.38;;
2868;SDS011;1442;47.448;8.582;2023-07-13T14:50:28;2.13;;;1.25;;
2868;SDS011;1442;47.448;8.582;2023-07-13T14:52:57;4.07;;;1.40;;
2868;SDS011;1442;47.448;8.582;2023-07-13T14:55:24;4.45;;;1.40;;
2868;SDS011;1442;47.448;8.582;2023-07-13T14:57:52;2.85;;;1.60;;
2868;SDS011;1442;47.448;8.582;2023-07-13T15:00:20;3.15;;;1.42;;
2868;SDS011;1442;47.448;8.582;2023-07-13T15:02:48;9.00;;;1.58;;
2868;SDS011;1442;47.448;8.582;2023-07-13T15:05:17;3.92;;;1.77;;
2868;SDS011;1442;47.448;8.582;2023-07-13T15:07:47;5.30;;;1.13;;
2868;SDS011;1442;47.448;8.582;2023-07-13T15:10:15;4.10;;;1.38;;
2868;SDS011;1442;47.448;8.582;2023-07-13T15:12:42;1.95;;;1.15;;
2868;SDS011;1442;47.448;8.582;2023-07-13T15:15:09;2.45;;;1.17;;
2868;SDS011;1442;47.448;8.582;2023-07-13T15:17:37;5.35;;;1.35;;
2868;SDS011;1442;47.448;8.582;2023-07-13T15:20:06;1.25;;;1.10;;
2868;SDS011;1442;47.448;8.582;2023-07-13T15:22:38;2.17;;;1.10;;
2868;SDS011;1442;47.448;8.582;2023-07-13T15:25:10;4.45;;;1.50;;
2868;SDS011;1442;47.448;8.582;2023-07-13T15:27:38;3.50;;;1.30;;
2868;SDS011;1442;47.448;8.582;2023-07-13T15:30:06;3.10;;;1.15;;
2868;SDS011;1442;47.448;8.582;2023-07-13T15:32:34;5.28;;;1.55;;